vendredi 7 mars 2014

ALERTE SPOTTING 07/03/14

PR1
   FJE3021/FJE3022   09h45/15h00

73H CN-RGN  RAM (sticker 50th 737)
   AT780/AT749  11h15/12h15
 AT740/AT781  19h25/20h40

AR8  Malmo Aviation  (dernier??)
  TF850/TF851   11h30/12h20

333 F-HZEN Corsair International
  CRL911/CRL814 06h30/12h10   (vol special match rugby Edinbourgh)
 CRL081/CRL910  17H45/21h20

320 EC-JZQ Vueling (stickers Thanks)
  VY8016/VY8017  14h40/
763
   AT764/AT765  15h05/16h30

IL9 CU-T1250 Cubana
   CU440/CU441  16h00/18h00

332 VT-WJH  Turkish Airlines
   dpt JAI9007 20h20 (tractage Hangar-parking N06 prévu 14h30)

744 EC-KQC Pullmantur Air
  arv PLM602P 20h30

Manque les prévisions/immats UX / BE / AZ / TP / BA / AH
*** Heures en Local Time **
Prévisions soumises à modifications de dernières minute. Voir le log du mois pour la version 'définitive' de la journée: http://www.airkalo.com/ORLYAVIATION/Logdumois.html

le TAF de la journée:


METAR: LFPO 070330Z 16002KT 8000 NSC 02/M00 Q1024 NOSIG=
TAF LONG: LFPO 062300Z 0700/0806 12003KT CAVOK PROB30 TEMPO 0702/0706 2000
BR TEMPO 0712/0718 24005KT TEMPO 0722/0802 4000 BR SCT005 BKN025
TEMPO 0802/0806 2500 BR=